Time;durP1;ratioP1;P1;durP2;ratioP2;P2;SDS_P1;SDS_P2;PMS_P1;PMS_P2;Temp;Humidity;BMP_temperature;BMP_pressure;BME280_temperature;BME280_humidity;BME280_pressure;Samples;Min_cycle;Max_cycle;Signal;HPM_P1;HPM_P2
2022/10/11 00:01:49;;;;;;;7.97;2.60;;;;;;;20.75;64.92;100824.44;5049797;28;20221;-64
2022/10/11 00:04:15;;;;;;;10.77;2.30;;;;;;;20.75;64.74;100837.94;5032948;28;20207;-64
2022/10/11 00:06:42;;;;;;;9.10;2.63;;;;;;;20.76;64.81;100831.84;5014383;28;20214;-65
2022/10/11 00:09:10;;;;;;;6.87;2.63;;;;;;;20.75;65.11;100832.22;5030009;28;20169;-64
2022/10/11 00:11:36;;;;;;;9.90;2.73;;;;;;;20.75;65.13;100829.34;5029859;28;20875;-64
2022/10/11 00:14:01;;;;;;;11.33;2.93;;;;;;;20.74;65.20;100827.69;5031496;28;20426;-64
2022/10/11 00:16:27;;;;;;;11.13;2.30;;;;;;;20.73;65.40;100823.97;5032844;28;20485;-65
2022/10/11 00:18:52;;;;;;;8.87;2.70;;;;;;;20.73;65.21;100829.72;5032817;28;20168;-64
2022/10/11 00:21:19;;;;;;;10.70;3.13;;;;;;;20.74;64.95;100825.66;5033159;28;20164;-65
2022/10/11 00:23:45;;;;;;;7.80;2.23;;;;;;;20.74;65.32;100825.66;5050722;28;20678;-65
2022/10/11 00:26:10;;;;;;;9.13;2.17;;;;;;;20.73;65.34;100829.72;5033165;28;20418;-64
2022/10/11 00:28:36;;;;;;;6.63;2.20;;;;;;;20.73;65.17;100821.09;5032619;28;20218;-64
2022/10/11 00:31:03;;;;;;;9.37;2.77;;;;;;;20.73;65.17;100828.91;5032783;28;20167;-65
2022/10/11 00:33:29;;;;;;;6.80;1.93;;;;;;;20.73;65.20;100823.16;5032512;28;20305;-64
2022/10/11 00:35:54;;;;;;;9.03;1.87;;;;;;;20.72;65.37;100833.00;5032868;28;20938;-64
2022/10/11 00:38:20;;;;;;;6.00;2.17;;;;;;;20.73;65.09;100832.59;5050593;28;20619;-64
2022/10/11 00:40:45;;;;;;;6.10;2.10;;;;;;;20.71;65.01;100832.16;5032934;28;20619;-65
2022/10/11 00:43:18;;;;;;;5.70;2.17;;;;;;;20.72;65.33;100833.81;5032288;28;20638;-65
2022/10/11 00:45:56;;;;;;;9.00;2.40;;;;;;;20.72;65.32;100833.81;5032995;28;20184;-65
2022/10/11 00:48:41;;;;;;;6.50;1.93;;;;;;;20.73;65.19;100838.31;5050542;28;20522;-64
2022/10/11 00:51:15;;;;;;;5.73;2.00;;;;;;;20.72;65.27;100836.66;5049203;28;20476;-65
2022/10/11 00:53:41;;;;;;;7.23;2.43;;;;;;;20.72;65.08;100833.81;5032293;28;20428;-65
2022/10/11 00:56:16;;;;;;;11.20;1.93;;;;;;;20.73;65.10;100840.38;5050383;28;20462;-65
2022/10/11 00:58:41;;;;;;;5.60;2.20;;;;;;;20.72;65.40;100839.53;5017110;28;20167;-65
2022/10/11 01:01:07;;;;;;;8.43;2.17;;;;;;;20.72;65.17;100838.72;5032898;28;20878;-68
2022/10/11 01:03:32;;;;;;;9.53;2.20;;;;;;;20.72;65.25;100842.41;5019997;28;20549;-69
2022/10/11 01:06:00;;;;;;;10.53;2.50;;;;;;;20.71;65.23;100842.78;5015911;28;20631;-69
2022/10/11 01:08:25;;;;;;;7.13;2.30;;;;;;;20.72;65.01;100842.41;5050175;28;20179;-69
2022/10/11 01:10:51;;;;;;;7.73;2.53;;;;;;;20.71;65.11;100843.63;5050368;28;20505;-68
2022/10/11 01:13:52;;;;;;;5.63;2.17;;;;;;;20.71;65.47;100848.53;5049918;28;20172;-69
2022/10/11 01:16:45;;;;;;;7.70;2.07;;;;;;;20.71;65.19;100849.38;4994771;28;20694;-68
2022/10/11 01:19:10;;;;;;;7.30;2.70;;;;;;;20.69;64.66;100846.06;5030101;28;21027;-69
2022/10/11 01:21:52;;;;;;;4.37;1.80;;;;;;;20.69;65.33;100840.31;5031649;28;20430;-68
2022/10/11 01:24:42;;;;;;;4.87;2.07;;;;;;;20.71;65.33;100854.25;5048118;28;20644;-69
2022/10/11 01:27:29;;;;;;;4.87;1.93;;;;;;;20.70;65.48;100855.47;5053925;28;20390;-69
2022/10/11 01:30:16;;;;;;;4.33;2.27;;;;;;;20.69;65.50;100854.66;5037071;28;20517;-69
2022/10/11 01:33:03;;;;;;;8.50;2.53;;;;;;;20.70;65.41;100859.19;5053350;28;20428;-68
2022/10/11 01:36:04;;;;;;;7.03;1.83;;;;;;;20.70;65.11;100850.59;5053241;28;20450;-69
2022/10/11 01:38:36;;;;;;;8.43;2.47;;;;;;;20.70;65.29;100852.63;5035705;28;20476;-69
2022/10/11 01:41:05;;;;;;;4.43;1.90;;;;;;;20.70;65.41;100852.63;5053679;28;20418;-69
2022/10/11 01:43:30;;;;;;;5.30;2.13;;;;;;;20.69;65.23;100846.06;5035109;28;20446;-68
2022/10/11 01:45:57;;;;;;;7.33;2.33;;;;;;;20.69;65.23;100854.66;5053216;28;20430;-68
2022/10/11 01:48:23;;;;;;;5.73;2.30;;;;;;;20.66;64.94;100852.56;5035388;28;20641;-69
2022/10/11 01:50:56;;;;;;;9.50;2.60;;;;;;;20.68;65.06;100850.13;5035624;28;20438;-68
2022/10/11 01:53:29;;;;;;;11.13;2.20;;;;;;;20.69;65.22;100853.84;5035187;28;20274;-68
2022/10/11 01:56:08;;;;;;;7.17;2.10;;;;;;;20.67;65.32;100851.34;5051272;28;20465;-68
2022/10/11 01:58:39;;;;;;;5.70;2.27;;;;;;;20.68;65.16;100847.25;5051123;28;20402;-68
2022/10/11 02:01:53;;;;;;;7.83;1.60;;;;;;;20.67;65.46;100854.22;5033883;28;20406;-68
2022/10/11 02:04:21;;;;;;;4.33;1.87;;;;;;;20.68;65.23;100855.03;5034750;28;21020;-68
2022/10/11 02:07:07;;;;;;;4.73;2.20;;;;;;;20.68;65.13;100852.19;5034631;28;20788;-68
2022/10/11 02:09:37;;;;;;;5.63;2.10;;;;;;;20.67;65.14;100857.06;5052463;28;20875;-68
2022/10/11 02:12:11;;;;;;;6.43;2.00;;;;;;;20.68;65.18;100855.84;5052833;28;20429;-69
2022/10/11 02:14:39;;;;;;;5.50;1.85;;;;;;;20.66;65.50;100852.56;5034829;28;20430;-69
2022/10/11 02:17:11;;;;;;;6.07;2.30;;;;;;;20.67;65.14;100851.34;5034970;28;20477;-69
2022/10/11 02:19:39;;;;;;;5.40;1.90;;;;;;;20.68;65.55;100855.84;5034533;28;20500;-68
2022/10/11 02:22:07;;;;;;;4.27;1.80;;;;;;;20.66;65.67;100854.59;5034878;28;20414;-69
2022/10/11 02:24:33;;;;;;;6.07;2.10;;;;;;;20.66;65.45;100864.03;5034765;28;20533;-69
2022/10/11 02:27:00;;;;;;;3.83;1.77;;;;;;;20.66;65.45;100860.31;5018556;28;20410;-69
2022/10/11 02:29:26;;;;;;;6.77;1.73;;;;;;;20.66;65.16;100858.28;5018349;28;20438;-69
2022/10/11 02:31:51;;;;;;;4.73;2.13;;;;;;;20.66;65.30;100863.19;5051655;28;20492;-69
2022/10/11 02:34:22;;;;;;;12.10;2.40;;;;;;;20.66;65.30;100854.59;5034536;28;20434;-69
2022/10/11 02:37:15;;;;;;;4.87;2.10;;;;;;;20.66;65.50;100861.16;5033759;28;20199;-68
2022/10/11 02:40:02;;;;;;;4.63;1.83;;;;;;;20.66;65.36;100858.28;5052328;28;20447;-69
2022/10/11 02:42:35;;;;;;;5.97;2.40;;;;;;;20.66;65.66;100857.44;5052073;28;20492;-68
2022/10/11 02:45:13;;;;;;;5.67;1.97;;;;;;;20.67;65.46;100867.75;5050783;28;20422;-68
2022/10/11 02:47:39;;;;;;;4.43;2.03;;;;;;;20.65;65.35;100861.53;5034137;28;20430;-69
2022/10/11 02:50:05;;;;;;;5.00;1.97;;;;;;;20.66;65.56;100860.31;5033610;28;20545;-68
2022/10/11 02:52:30;;;;;;;4.97;2.00;;;;;;;20.66;65.70;100851.72;5050202;28;20535;-69
2022/10/11 02:54:57;;;;;;;6.33;2.70;;;;;;;20.65;65.51;100861.53;5051066;28;20203;-68
2022/10/11 02:57:22;;;;;;;5.83;1.70;;;;;;;20.64;65.39;100863.59;5033759;28;20284;-68
2022/10/11 02:59:48;;;;;;;5.10;2.13;;;;;;;20.65;65.19;100862.38;5033500;28;20430;-68
2022/10/11 03:02:13;;;;;;;7.53;2.57;;;;;;;20.65;65.11;100867.28;5051746;28;20187;-68
2022/10/11 03:04:39;;;;;;;4.50;1.73;;;;;;;20.65;65.67;100867.28;5050393;28;20627;-69
2022/10/11 03:07:04;;;;;;;9.20;2.70;;;;;;;20.65;65.36;100867.28;5052157;28;20245;-69
2022/10/11 03:09:29;;;;;;;4.40;1.70;;;;;;;20.64;65.37;100860.72;5033882;28;20571;-68
2022/10/11 03:11:55;;;;;;;3.83;1.60;;;;;;;20.64;65.27;100859.88;5016694;28;20494;-68
2022/10/11 03:14:20;;;;;;;4.53;1.67;;;;;;;20.65;65.39;100864.41;5016692;28;20694;-68
2022/10/11 03:16:46;;;;;;;5.60;2.70;;;;;;;20.64;65.66;100863.59;5050939;28;20701;-69
2022/10/11 03:19:11;;;;;;;5.63;2.43;;;;;;;20.65;65.20;100864.41;5049035;28;20180;-69
2022/10/11 03:21:36;;;;;;;5.43;2.30;;;;;;;20.65;65.45;100861.53;5013414;28;20184;-70
2022/10/11 03:24:02;;;;;;;6.53;2.07;;;;;;;20.65;65.12;100862.38;5033443;28;20574;-69
2022/10/11 03:26:28;;;;;;;4.10;1.70;;;;;;;20.65;65.60;100856.63;5033925;28;20577;-69
2022/10/11 03:28:54;;;;;;;5.50;1.90;;;;;;;20.65;65.39;100861.53;5033325;28;20172;-69
2022/10/11 03:31:20;;;;;;;4.50;1.90;;;;;;;20.64;65.12;100857.84;5033024;28;20180;-69
2022/10/11 03:33:46;;;;;;;5.10;1.83;;;;;;;20.64;65.13;100855.00;5051366;28;20179;-69
2022/10/11 03:36:12;;;;;;;6.50;1.80;;;;;;;20.63;65.27;100861.91;5033592;28;20957;-69
2022/10/11 03:38:37;;;;;;;5.50;2.17;;;;;;;20.64;65.18;100860.72;5033287;28;20240;-69
2022/10/11 03:41:02;;;;;;;5.40;1.90;;;;;;;20.64;65.23;100863.59;5050290;28;20562;-68
2022/10/11 03:43:28;;;;;;;5.23;1.80;;;;;;;20.64;65.21;100865.63;5051458;28;20218;-69
2022/10/11 03:45:53;;;;;;;3.47;1.57;;;;;;;20.63;65.12;100864.78;5032978;28;20270;-69
2022/10/11 03:48:19;;;;;;;5.93;2.40;;;;;;;20.64;65.34;100869.34;5049814;28;20669;-69
2022/10/11 03:50:44;;;;;;;4.90;1.57;;;;;;;20.63;65.13;100873.38;5050875;28;20210;-70
2022/10/11 03:53:10;;;;;;;10.23;2.00;;;;;;;20.64;65.42;100877.09;5050125;28;20164;-69
2022/10/11 03:55:38;;;;;;;4.23;1.60;;;;;;;20.65;65.50;100881.63;5032787;28;20238;-69
2022/10/11 03:58:04;;;;;;;6.50;1.60;;;;;;;20.64;65.43;100886.56;5033404;28;20186;-69
2022/10/11 04:00:29;;;;;;;5.17;2.03;;;;;;;20.66;65.75;100887.00;5051042;28;20438;-70
2022/10/11 04:02:55;;;;;;;3.40;1.83;;;;;;;20.65;65.27;100885.34;5038876;28;20187;-69
2022/10/11 04:05:21;;;;;;;3.43;1.50;;;;;;;20.65;65.19;100881.63;5030099;28;20604;-70
2022/10/11 04:07:46;;;;;;;4.17;1.40;;;;;;;20.64;65.48;100895.16;5032829;28;20179;-69
2022/10/11 04:10:11;;;;;;;4.70;2.07;;;;;;;20.64;65.32;100882.84;5033152;28;20168;-69
2022/10/11 04:12:38;;;;;;;4.37;1.57;;;;;;;20.64;65.21;100894.31;5032890;28;20172;-68
2022/10/11 04:15:04;;;;;;;6.13;2.20;;;;;;;20.63;65.33;100892.66;5017085;28;20195;-68
2022/10/11 04:17:30;;;;;;;3.93;1.67;;;;;;;20.64;65.46;100894.31;5050835;28;20440;-69
2022/10/11 04:19:55;;;;;;;7.57;1.67;;;;;;;20.63;65.14;100893.47;5033010;28;20406;-69
2022/10/11 04:22:20;;;;;;;3.20;1.60;;;;;;;20.64;65.19;100889.41;5049892;28;20541;-69
2022/10/11 04:24:46;;;;;;;5.83;1.43;;;;;;;20.64;65.51;100895.16;5032524;28;20615;-69
2022/10/11 04:27:11;;;;;;;3.60;1.30;;;;;;;20.63;65.53;100893.47;5050464;28;20179;-69
2022/10/11 04:29:37;;;;;;;3.90;1.80;;;;;;;20.63;65.49;100893.47;5032549;28;20175;-70
2022/10/11 04:32:02;;;;;;;5.60;1.70;;;;;;;20.65;65.09;100888.19;5032780;28;20176;-69
2022/10/11 04:34:28;;;;;;;7.00;2.00;;;;;;;20.65;65.47;100893.09;5032923;28;20179;-69
2022/10/11 04:36:53;;;;;;;3.80;1.47;;;;;;;20.64;65.46;100900.06;5032664;28;20249;-69
2022/10/11 04:39:19;;;;;;;3.50;1.60;;;;;;;20.63;65.33;100899.22;5032641;28;20682;-70
2022/10/11 04:41:44;;;;;;;3.57;1.57;;;;;;;20.62;65.56;100903.28;5016177;28;20179;-69
2022/10/11 04:44:10;;;;;;;6.90;1.90;;;;;;;20.63;65.32;100907.81;5048879;28;20190;-69
2022/10/11 04:46:35;;;;;;;5.33;1.97;;;;;;;20.63;65.17;100904.13;5032339;28;20195;-69
2022/10/11 04:49:01;;;;;;;2.90;1.47;;;;;;;20.64;65.71;100905.78;5050503;28;20207;-69
2022/10/11 04:51:27;;;;;;;4.07;1.67;;;;;;;20.64;65.10;100909.50;5049063;28;20171;-69
2022/10/11 04:53:53;;;;;;;4.40;1.67;;;;;;;20.64;65.43;100906.63;5016817;28;20175;-69
2022/10/11 04:56:18;;;;;;;4.43;1.80;;;;;;;20.64;65.03;100909.50;5032484;28;20450;-69
2022/10/11 04:58:46;;;;;;;4.13;2.00;;;;;;;20.64;65.33;100906.63;5050532;28;20179;-69
2022/10/11 05:01:12;;;;;;;5.80;1.70;;;;;;;20.63;65.53;100915.63;5034770;28;20241;-68
2022/10/11 05:03:37;;;;;;;3.43;1.47;;;;;;;20.64;65.50;100918.13;5053995;28;20454;-69
2022/10/11 05:06:03;;;;;;;3.43;1.30;;;;;;;20.66;65.40;100921.41;5036089;28;20629;-68
2022/10/11 05:08:28;;;;;;;3.23;1.50;;;;;;;20.64;65.28;100925.88;5036157;28;20531;-70
2022/10/11 05:10:58;;;;;;;5.97;1.80;;;;;;;20.64;65.49;100929.59;5035610;28;20604;-69
2022/10/11 05:13:24;;;;;;;2.50;1.30;;;;;;;20.64;65.65;100925.88;5003034;28;20179;-69
2022/10/11 05:15:50;;;;;;;3.17;1.30;;;;;;;20.64;65.21;100934.47;5035735;28;20478;-69
2022/10/11 05:18:15;;;;;;;3.83;1.47;;;;;;;20.65;65.58;100936.97;5035651;28;20180;-69
2022/10/11 05:20:40;;;;;;;4.03;1.40;;;;;;;20.64;65.11;100935.31;5053695;28;20164;-69
2022/10/11 05:23:07;;;;;;;3.20;1.40;;;;;;;20.65;65.70;100947.63;5053692;28;20249;-69
2022/10/11 05:25:32;;;;;;;3.83;1.40;;;;;;;20.65;64.98;100947.63;5052604;28;20214;-69
2022/10/11 05:27:58;;;;;;;4.60;2.03;;;;;;;20.65;65.31;100941.88;5015830;28;20446;-69
2022/10/11 05:30:23;;;;;;;11.50;3.43;;;;;;;20.55;64.94;100943.34;5030724;28;20249;-69
2022/10/11 05:32:49;;;;;;;14.20;5.97;;;;;;;20.51;64.17;100945.28;5033930;28;20175;-69
2022/10/11 05:35:16;;;;;;;17.80;8.97;;;;;;;20.55;65.25;100951.09;5033889;28;20540;-68
2022/10/11 05:37:41;;;;;;;20.63;10.80;;;;;;;20.37;64.48;100956.47;5030130;28;20215;-69
2022/10/11 05:40:07;;;;;;;22.07;11.13;;;;;;;20.48;63.85;100960.41;5032620;28;20552;-70
2022/10/11 05:42:33;;;;;;;19.63;10.47;;;;;;;20.60;63.79;100957.38;5050518;28;20187;-70
2022/10/11 05:44:58;;;;;;;14.50;8.87;;;;;;;20.70;63.33;100967.38;5016927;28;20740;-69
2022/10/11 05:47:23;;;;;;;17.60;8.77;;;;;;;20.79;63.64;100965.97;5033931;28;20180;-70
2022/10/11 05:49:49;;;;;;;22.50;8.10;;;;;;;20.85;63.83;100969.34;5049423;28;20217;-69
2022/10/11 05:52:18;;;;;;;18.10;7.63;;;;;;;20.86;63.62;100968.13;5048948;28;20172;-69
2022/10/11 05:54:44;;;;;;;12.60;7.47;;;;;;;20.88;63.77;100963.66;5031975;28;20183;-70
2022/10/11 05:57:09;;;;;;;11.97;5.80;;;;;;;20.90;63.27;100966.19;5033933;28;20481;-69
2022/10/11 05:59:35;;;;;;;16.63;7.03;;;;;;;21.03;64.33;100970.53;5050959;28;20187;-69
2022/10/11 06:02:00;;;;;;;19.30;8.70;;;;;;;21.29;63.69;100967.72;5033997;28;20180;-69
2022/10/11 06:04:26;;;;;;;15.00;8.53;;;;;;;21.36;64.64;100974.44;5033844;28;20937;-70
2022/10/11 06:06:51;;;;;;;15.63;8.30;;;;;;;21.24;64.44;100976.66;5033484;28;20187;-69
2022/10/11 06:09:17;;;;;;;11.17;6.23;;;;;;;21.19;63.65;100982.72;5049439;28;20191;-69
2022/10/11 06:11:44;;;;;;;11.60;6.50;;;;;;;21.15;64.17;100985.53;5031757;28;20188;-69
2022/10/11 06:14:10;;;;;;;13.00;6.70;;;;;;;21.08;64.45;100985.41;5033638;28;20172;-69
2022/10/11 06:16:35;;;;;;;15.47;6.30;;;;;;;20.96;64.85;100994.19;5032740;28;20485;-70
2022/10/11 06:19:01;;;;;;;16.33;7.10;;;;;;;20.86;62.99;100991.91;5033671;28;20956;-70
2022/10/11 06:21:26;;;;;;;17.80;9.93;;;;;;;20.87;63.60;100995.63;5048214;28;20187;-69
2022/10/11 06:23:52;;;;;;;21.50;8.90;;;;;;;20.89;63.75;100996.94;5031879;28;20183;-70
2022/10/11 06:26:17;;;;;;;15.70;8.80;;;;;;;20.92;63.39;100999.03;5032712;28;20237;-69
2022/10/11 06:28:43;;;;;;;17.30;8.47;;;;;;;20.92;63.16;101001.91;5032258;28;20183;-70
2022/10/11 06:31:08;;;;;;;11.80;8.40;;;;;;;20.94;63.32;101010.16;5032364;28;20188;-70
2022/10/11 06:33:34;;;;;;;14.67;7.13;;;;;;;20.96;63.06;101002.81;5032279;28;20207;-69
2022/10/11 06:36:04;;;;;;;12.67;7.20;;;;;;;20.97;63.13;101003.66;5028304;28;20212;-71
2022/10/11 06:38:30;;;;;;;14.73;7.40;;;;;;;20.96;63.08;101010.59;5027949;28;20199;-70
2022/10/11 06:40:55;;;;;;;12.10;6.70;;;;;;;20.95;63.03;101015.50;5042203;28;20904;-69
2022/10/11 06:43:21;;;;;;;15.87;6.20;;;;;;;20.90;62.82;101018.69;5032007;28;20659;-69
2022/10/11 06:45:47;;;;;;;12.13;6.43;;;;;;;20.89;62.70;101016.16;5032046;28;20188;-68
2022/10/11 06:48:12;;;;;;;15.77;6.67;;;;;;;20.91;62.70;101016.63;5031407;28;20437;-69
2022/10/11 06:50:37;;;;;;;18.33;6.03;;;;;;;20.96;64.32;101024.94;5021215;28;20203;-69
2022/10/11 06:53:07;;;;;;;19.63;6.47;;;;;;;20.94;64.19;101024.50;5027642;28;20180;-69
2022/10/11 06:55:33;;;;;;;18.63;5.70;;;;;;;20.92;63.85;101026.94;5020106;28;21011;-69
2022/10/11 06:57:58;;;;;;;17.43;5.40;;;;;;;20.88;63.46;101023.94;5042954;28;20461;-68
2022/10/11 07:00:24;;;;;;;12.40;5.70;;;;;;;20.89;62.71;101040.00;5027971;28;20248;-69
2022/10/11 07:02:49;;;;;;;14.17;5.50;;;;;;;20.89;62.98;101048.59;5019829;28;20185;-69
2022/10/11 07:05:15;;;;;;;12.57;6.00;;;;;;;20.91;63.04;101046.19;5031745;28;20192;-68
2022/10/11 07:07:41;;;;;;;14.80;4.97;;;;;;;20.92;62.80;101047.84;5023177;28;20815;-69
2022/10/11 07:10:07;;;;;;;12.70;5.13;;;;;;;20.93;62.50;101046.63;5035231;28;20433;-69
2022/10/11 07:12:32;;;;;;;18.20;4.87;;;;;;;20.94;62.97;101050.34;5027966;28;20287;-69
2022/10/11 07:14:58;;;;;;;14.53;4.87;;;;;;;20.93;62.85;101055.22;5045145;28;20195;-68
2022/10/11 07:17:24;;;;;;;10.73;4.30;;;;;;;20.90;63.22;101053.13;5006777;28;20199;-68
2022/10/11 07:19:49;;;;;;;18.77;4.40;;;;;;;20.90;63.16;101064.63;5021881;28;20622;-69
2022/10/11 07:22:15;;;;;;;13.40;4.73;;;;;;;20.90;64.04;101058.03;5044999;28;20437;-69
2022/10/11 07:24:40;;;;;;;14.37;5.10;;;;;;;20.85;64.14;101061.19;4992334;28;20986;-69
2022/10/11 07:27:05;;;;;;;16.73;4.80;;;;;;;20.87;64.25;101059.59;5017681;28;20212;-69
2022/10/11 07:29:31;;;;;;;20.60;4.90;;;;;;;20.86;64.31;101062.84;5032133;28;20266;-70
2022/10/11 07:31:56;;;;;;;25.73;5.20;;;;;;;20.86;64.65;101072.28;5032570;28;20185;-69
2022/10/11 07:34:22;;;;;;;13.70;4.30;;;;;;;20.84;64.38;101071.84;5036811;28;20184;-69
2022/10/11 07:36:47;;;;;;;13.43;4.40;;;;;;;20.85;64.43;101079.25;5039315;28;20584;-69
2022/10/11 07:39:14;;;;;;;15.97;5.27;;;;;;;20.85;64.60;101076.38;5025468;28;20658;-69
2022/10/11 07:41:39;;;;;;;20.33;4.37;;;;;;;20.85;64.56;101062.03;5003836;28;20190;-69
2022/10/11 07:44:04;;;;;;;13.83;4.37;;;;;;;20.84;64.97;101074.72;5039775;28;20442;-69
2022/10/11 07:46:30;;;;;;;18.90;4.40;;;;;;;20.84;65.22;101076.75;5021860;28;20179;-70
2022/10/11 07:48:55;;;;;;;8.90;4.00;;;;;;;20.86;64.71;101068.56;5015948;28;20203;-69
2022/10/11 07:51:22;;;;;;;9.73;4.93;;;;;;;20.84;64.55;101074.72;5014352;28;20195;-69
2022/10/11 07:53:52;;;;;;;14.87;4.23;;;;;;;20.84;64.65;101080.47;5022062;28;20195;-69
2022/10/11 07:56:21;;;;;;;8.30;4.50;;;;;;;20.84;64.91;101074.72;5029758;28;20554;-70
2022/10/11 07:58:53;;;;;;;13.93;4.37;;;;;;;20.85;64.59;101073.50;5000763;28;20435;-70
2022/10/11 08:01:19;;;;;;;11.60;3.80;;;;;;;20.84;64.93;101071.84;5017798;28;20432;-70
2022/10/11 08:03:44;;;;;;;10.13;4.50;;;;;;;20.85;64.66;101078.41;5026688;28;20977;-70
2022/10/11 08:06:10;;;;;;;21.00;3.87;;;;;;;20.84;65.33;101076.75;5020242;28;20180;-69
2022/10/11 08:08:36;;;;;;;9.00;4.00;;;;;;;20.85;64.91;101081.28;5028965;28;20188;-70
2022/10/11 08:11:01;;;;;;;9.40;3.77;;;;;;;20.84;64.79;101080.47;5035256;28;20191;-69
2022/10/11 08:13:27;;;;;;;7.90;3.50;;;;;;;20.84;64.74;101083.31;5032511;28;20191;-69
2022/10/11 08:15:52;;;;;;;13.83;4.17;;;;;;;20.84;64.87;101089.06;5026518;28;20228;-70
2022/10/11 08:18:18;;;;;;;13.80;4.90;;;;;;;20.84;64.93;101082.47;5019043;28;20606;-69
2022/10/11 08:20:43;;;;;;;11.67;3.93;;;;;;;20.84;64.96;101088.22;5017006;28;20188;-69
2022/10/11 08:23:09;;;;;;;11.87;4.10;;;;;;;20.84;65.36;101086.19;5024275;28;20239;-69
2022/10/11 08:25:37;;;;;;;9.73;4.40;;;;;;;20.84;64.85;101091.09;5032182;28;20167;-70
2022/10/11 08:28:02;;;;;;;9.30;4.47;;;;;;;20.82;65.07;101085.72;5032815;28;20186;-69
2022/10/11 08:30:28;;;;;;;7.60;3.60;;;;;;;20.83;65.00;101087.38;5034553;28;20431;-69
2022/10/11 08:32:53;;;;;;;11.00;4.60;;;;;;;20.81;64.86;101086.94;5019503;28;20243;-68
2022/10/11 08:35:19;;;;;;;10.13;3.87;;;;;;;20.83;64.88;101093.13;5025802;28;20573;-69
2022/10/11 08:37:44;;;;;;;8.67;3.90;;;;;;;20.80;64.82;101096.75;5035094;28;20567;-69
2022/10/11 08:40:15;;;;;;;9.67;3.77;;;;;;;20.81;64.54;101089.81;5029384;28;20600;-69
2022/10/11 08:42:57;;;;;;;8.60;3.67;;;;;;;20.84;64.93;101091.09;5027810;28;20271;-69
2022/10/11 08:45:38;;;;;;;8.47;3.50;;;;;;;20.83;65.21;101095.19;5021490;28;20448;-69
2022/10/11 08:48:13;;;;;;;13.57;3.73;;;;;;;20.82;64.98;101090.66;5030018;28;20982;-70
2022/10/11 08:50:38;;;;;;;10.20;3.47;;;;;;;20.83;64.97;101093.13;5035624;28;20414;-69
2022/10/11 08:53:17;;;;;;;8.20;3.50;;;;;;;20.83;64.89;101098.84;5020454;28;20425;-69
2022/10/11 08:55:46;;;;;;;6.10;3.57;;;;;;;20.85;64.77;101101.34;5034447;28;20203;-69
2022/10/11 08:58:13;;;;;;;9.80;3.53;;;;;;;20.85;64.79;101087.00;5033402;28;20474;-69
2022/10/11 09:00:39;;;;;;;11.67;3.60;;;;;;;20.86;64.83;101094.41;5021088;28;20435;-69
2022/10/11 09:03:19;;;;;;;6.43;3.40;;;;;;;20.83;64.80;101096.00;5009672;28;20424;-69
2022/10/11 09:05:55;;;;;;;8.53;3.87;;;;;;;20.84;64.65;101096.84;5036149;28;20230;-69
2022/10/11 09:08:47;;;;;;;14.00;3.87;;;;;;;20.83;65.21;101096.00;5035051;28;20419;-70
2022/10/11 09:11:45;;;;;;;8.07;3.93;;;;;;;20.83;64.77;101098.84;5023556;28;20430;-69
2022/10/11 09:14:32;;;;;;;11.10;4.83;;;;;;;20.84;64.91;101091.94;5036344;28;20414;-69
2022/10/11 09:17:34;;;;;;;7.73;3.33;;;;;;;20.82;64.97;101099.25;5038538;28;20487;-70
2022/10/11 09:20:00;;;;;;;7.17;3.07;;;;;;;20.84;64.83;101102.56;5043990;28;20890;-70
2022/10/11 09:22:32;;;;;;;7.20;3.17;;;;;;;20.84;64.70;101100.53;5041042;28;20423;-69
2022/10/11 09:25:18;;;;;;;7.00;3.33;;;;;;;20.84;65.07;101109.16;5042330;28;20250;-69
2022/10/11 09:28:08;;;;;;;10.33;2.97;;;;;;;20.82;64.85;101102.94;5040673;28;20409;-69
2022/10/11 09:30:33;;;;;;;7.70;3.20;;;;;;;20.82;64.98;101094.34;5020552;28;20454;-69
2022/10/11 09:33:01;;;;;;;7.57;3.00;;;;;;;20.81;64.78;101092.69;5024179;28;20913;-69
2022/10/11 09:35:40;;;;;;;4.70;2.73;;;;;;;20.83;65.31;101087.38;5033188;28;20208;-69
2022/10/11 09:38:21;;;;;;;4.80;2.73;;;;;;;20.83;65.19;101093.13;5018941;28;20466;-69
2022/10/11 09:41:25;;;;;;;8.20;3.23;;;;;;;20.81;64.97;101092.69;5035911;28;20466;-69
2022/10/11 09:43:51;;;;;;;6.13;3.17;;;;;;;20.83;65.05;101095.19;5022166;28;20761;-69
2022/10/11 09:46:34;;;;;;;6.23;2.90;;;;;;;20.84;65.08;101093.97;5018235;28;20534;-69
2022/10/11 09:49:01;;;;;;;9.93;2.90;;;;;;;20.82;65.06;101097.22;5011959;28;20191;-69
2022/10/11 09:51:26;;;;;;;11.10;3.40;;;;;;;20.84;64.66;101097.69;5020802;28;20810;-70
2022/10/11 09:53:54;;;;;;;5.60;3.03;;;;;;;20.84;64.59;101093.97;5016338;28;20415;-69
2022/10/11 09:56:20;;;;;;;6.90;3.17;;;;;;;20.86;64.40;101101.00;5020727;28;20680;-69
2022/10/11 09:58:46;;;;;;;8.80;4.20;;;;;;;20.88;64.69;101101.44;5021534;28;20452;-69
2022/10/11 10:01:21;;;;;;;5.20;2.97;;;;;;;20.85;64.71;101102.22;5020006;28;20430;-68
2022/10/11 10:03:46;;;;;;;8.10;3.20;;;;;;;20.85;65.31;101099.34;5020166;28;20714;-69
2022/10/11 10:06:15;;;;;;;9.27;3.30;;;;;;;20.85;64.70;101102.22;5017615;28;20426;-69
2022/10/11 10:08:42;;;;;;;8.80;2.80;;;;;;;20.87;64.78;101099.78;5028146;28;20249;-69
2022/10/11 10:11:07;;;;;;;7.93;3.30;;;;;;;20.86;64.69;101098.13;5023597;28;20435;-69
2022/10/11 10:13:48;;;;;;;8.10;3.07;;;;;;;20.87;65.04;101094.03;5032964;28;20442;-69
2022/10/11 10:16:20;;;;;;;8.83;2.80;;;;;;;20.89;64.81;101096.53;5016011;28;20486;-69
2022/10/11 10:19:16;;;;;;;6.47;3.50;;;;;;;20.87;65.29;101098.97;5031477;28;20752;-69
2022/10/11 10:21:49;;;;;;;5.10;3.10;;;;;;;20.86;64.60;101101.00;5018778;28;20437;-69
2022/10/11 10:24:21;;;;;;;5.13;3.13;;;;;;;20.85;64.79;101098.50;5027565;28;21053;-69
2022/10/11 10:27:09;;;;;;;5.90;2.70;;;;;;;20.86;65.37;101089.50;5032255;28;20433;-69
2022/10/11 10:29:35;;;;;;;4.77;2.80;;;;;;;20.88;64.98;101089.94;5033222;28;20430;-69
2022/10/11 10:32:19;;;;;;;6.10;3.50;;;;;;;20.87;64.82;101096.91;5025171;28;20503;-69
2022/10/11 10:35:12;;;;;;;9.80;2.90;;;;;;;20.86;64.66;101091.53;5037148;28;20191;-69
2022/10/11 10:37:48;;;;;;;9.27;3.30;;;;;;;20.86;64.84;101095.25;5026722;28;20466;-69
2022/10/11 10:40:17;;;;;;;6.50;2.80;;;;;;;20.89;64.97;101096.53;5009322;28;20430;-70
2022/10/11 10:42:43;;;;;;;8.00;3.37;;;;;;;20.88;64.38;101089.94;5020194;28;20437;-69
2022/10/11 10:45:22;;;;;;;5.93;3.00;;;;;;;20.87;64.99;101093.22;5015072;28;20438;-68
2022/10/11 10:48:17;;;;;;;7.40;3.27;;;;;;;20.88;64.71;101092.81;5025267;28;20192;-69
2022/10/11 10:50:55;;;;;;;6.07;2.70;;;;;;;20.91;64.82;101091.25;5024204;28;20522;-70
2022/10/11 10:53:43;;;;;;;5.33;2.63;;;;;;;20.90;64.99;101086.75;5033187;28;20465;-70
2022/10/11 10:56:09;;;;;;;6.57;2.50;;;;;;;20.91;64.93;101092.09;5019192;28;20965;-70
2022/10/11 10:59:01;;;;;;;6.67;3.00;;;;;;;20.92;64.55;101098.69;5031196;28;20430;-69
2022/10/11 11:01:31;;;;;;;4.97;2.83;;;;;;;20.91;64.54;101086.38;5028415;28;20438;-69
2022/10/11 11:04:17;;;;;;;6.33;3.13;;;;;;;20.91;64.72;101088.41;5027482;28;20523;-69
2022/10/11 11:06:51;;;;;;;8.97;3.47;;;;;;;20.91;64.91;101083.50;5033820;28;21391;-69
2022/10/11 11:09:32;;;;;;;7.20;2.60;;;;;;;20.91;64.53;101086.38;5036271;28;20819;-69
2022/10/11 11:12:25;;;;;;;3.63;2.43;;;;;;;20.88;64.81;101078.47;5015314;28;20442;-69
2022/10/11 11:15:05;;;;;;;4.70;2.80;;;;;;;20.95;64.71;101078.66;5015811;28;20429;-69
2022/10/11 11:17:52;;;;;;;4.60;2.80;;;;;;;20.92;64.92;101079.41;5032774;28;20505;-69
2022/10/11 11:20:36;;;;;;;6.40;3.17;;;;;;;20.90;64.87;101067.50;5033811;28;20496;-69
2022/10/11 11:23:28;;;;;;;6.10;2.90;;;;;;;20.90;65.33;101081.84;5035271;28;21030;-68
2022/10/11 11:26:17;;;;;;;5.93;3.07;;;;;;;20.92;64.84;101076.53;5032576;28;21106;-68
2022/10/11 11:29:16;;;;;;;5.77;2.60;;;;;;;20.94;64.73;101073.28;5013110;28;21412;-69
2022/10/11 11:31:44;;;;;;;6.33;2.80;;;;;;;20.93;64.74;101072.44;5034306;28;20421;-69
2022/10/11 11:34:24;;;;;;;6.47;3.10;;;;;;;20.96;64.51;101068.84;5032466;28;20918;-69
2022/10/11 11:37:08;;;;;;;5.10;2.30;;;;;;;20.93;64.72;101068.78;5034208;28;20806;-69